createdAt,value
2022-11-15T00:03:37.105Z,87.30
2022-11-15T00:07:48.388Z,87.20
2022-11-15T00:11:20.696Z,87.30
2022-11-15T00:15:02.667Z,87.50
2022-11-15T00:18:50.409Z,87.40
2022-11-15T00:22:34.145Z,87.50
2022-11-15T00:26:16.098Z,87.50
2022-11-15T00:29:58.012Z,87.50
2022-11-15T00:33:41.002Z,87.60
2022-11-15T00:37:22.695Z,88.20
2022-11-15T00:41:09.363Z,87.70
2022-11-15T00:44:51.441Z,87.70
2022-11-15T00:48:33.233Z,87.50
2022-11-15T00:52:14.906Z,87.60
2022-11-15T00:55:56.588Z,87.60
2022-11-15T00:59:38.292Z,87.60
2022-11-15T01:03:20.009Z,87.70
2022-11-15T01:07:01.747Z,87.60
2022-11-15T01:10:43.509Z,87.60
2022-11-15T01:14:25.852Z,87.60
2022-11-15T01:18:07.789Z,87.60
2022-11-15T01:21:52.619Z,87.90
2022-11-15T01:25:34.297Z,88.70
2022-11-15T01:29:15.971Z,88.30
2022-11-15T01:32:59.939Z,88.30
2022-11-15T01:36:41.601Z,88.50
2022-11-15T01:40:23.300Z,88.60
2022-11-15T01:44:36.009Z,88.70
2022-11-15T01:48:17.693Z,89.00
2022-11-15T01:51:59.850Z,88.80
2022-11-15T01:55:41.613Z,88.80
2022-11-15T01:59:23.356Z,88.90
2022-11-15T02:03:05.085Z,89.00
2022-11-15T02:06:46.828Z,88.70
2022-11-15T02:10:28.576Z,88.70
2022-11-15T02:14:11.585Z,88.50
2022-11-15T02:18:05.529Z,88.80
2022-11-15T02:21:47.225Z,89.90
2022-11-15T02:26:01.046Z,88.90
2022-11-15T02:30:21.076Z,89.30
2022-11-15T02:34:20.891Z,89.70
2022-11-15T02:38:11.669Z,90.00
2022-11-15T02:41:57.801Z,90.10
2022-11-15T02:46:08.372Z,90.10
2022-11-15T02:49:54.711Z,90.30
2022-11-15T02:53:36.602Z,90.60
2022-11-15T02:57:18.413Z,90.60
2022-11-15T03:01:00.721Z,90.80
2022-11-15T03:05:10.354Z,91.00
2022-11-15T03:08:58.377Z,91.20
2022-11-15T03:12:57.756Z,91.30
2022-11-15T03:16:44.398Z,91.40
2022-11-15T03:20:26.154Z,91.20
2022-11-15T03:24:08.856Z,91.20
2022-11-15T03:27:52.945Z,91.40
2022-11-15T03:31:50.526Z,91.50
2022-11-15T03:35:43.750Z,91.50
2022-11-15T03:39:25.480Z,91.60
2022-11-15T03:43:11.714Z,91.60
2022-11-15T03:47:04.855Z,91.70
2022-11-15T03:50:46.557Z,92.00
2022-11-15T03:54:28.285Z,91.70
2022-11-15T03:58:09.972Z,92.00
2022-11-15T04:01:53.713Z,92.00
2022-11-15T04:05:35.312Z,92.10
2022-11-15T04:09:17.038Z,91.90
2022-11-15T04:12:58.816Z,92.10
2022-11-15T04:16:43.895Z,92.10
2022-11-15T04:20:48.525Z,92.20
2022-11-15T04:24:30.328Z,92.20
2022-11-15T04:28:12.473Z,92.20
2022-11-15T04:31:54.323Z,92.20
2022-11-15T04:35:36.042Z,92.50
2022-11-15T04:39:17.749Z,92.30
2022-11-15T04:43:03.912Z,92.40
2022-11-15T04:46:45.928Z,92.50
2022-11-15T04:50:27.606Z,92.60
2022-11-15T04:54:09.342Z,92.50
2022-11-15T04:58:01.662Z,92.60
2022-11-15T05:01:45.091Z,92.70
2022-11-15T05:05:27.047Z,92.60
2022-11-15T05:09:08.815Z,92.50
2022-11-15T05:12:50.717Z,92.50
2022-11-15T05:16:32.401Z,92.60
2022-11-15T05:20:14.470Z,92.60
2022-11-15T05:23:56.352Z,92.60
2022-11-15T05:27:38.148Z,92.70
2022-11-15T05:31:19.979Z,92.70
2022-11-15T05:35:01.670Z,92.70
2022-11-15T05:38:43.369Z,92.70
2022-11-15T05:42:25.365Z,92.70
2022-11-15T05:46:07.042Z,92.70
2022-11-15T05:49:48.790Z,92.80
2022-11-15T05:53:30.895Z,93.10
2022-11-15T05:57:12.901Z,92.80
2022-11-15T06:00:55.012Z,92.80
2022-11-15T06:04:36.774Z,92.80
2022-11-15T06:08:18.449Z,92.90
2022-11-15T06:12:01.437Z,92.90
2022-11-15T06:15:43.120Z,93.00
2022-11-15T06:19:24.847Z,93.00
2022-11-15T06:23:07.740Z,93.00
2022-11-15T06:26:49.409Z,93.10
2022-11-15T06:30:31.105Z,93.40
2022-11-15T06:34:12.894Z,93.10
2022-11-15T06:37:54.615Z,93.10
2022-11-15T06:41:36.661Z,93.20
2022-11-15T06:45:18.389Z,93.50
2022-11-15T06:49:02.031Z,93.30
2022-11-15T06:52:47.105Z,93.30
2022-11-15T06:56:28.774Z,93.30
2022-11-15T07:00:11.275Z,93.70
2022-11-15T07:03:53.084Z,93.40
2022-11-15T07:07:34.774Z,93.40
2022-11-15T07:11:16.692Z,93.40
2022-11-15T07:14:58.363Z,93.30
2022-11-15T07:18:40.567Z,93.40
2022-11-15T07:22:22.389Z,93.40
2022-11-15T07:26:04.088Z,93.30
2022-11-15T07:29:45.844Z,93.30
2022-11-15T07:33:27.777Z,93.30
2022-11-15T07:37:09.640Z,93.40
2022-11-15T07:40:57.561Z,93.40
2022-11-15T07:44:39.268Z,93.60
2022-11-15T07:48:21.115Z,93.50
2022-11-15T07:52:03.012Z,93.50
2022-11-15T07:55:44.665Z,93.50
2022-11-15T07:59:26.364Z,93.50
2022-11-15T08:03:10.083Z,93.60
2022-11-15T08:06:51.706Z,93.60
2022-11-15T08:10:39.265Z,93.50
2022-11-15T08:14:23.056Z,93.50
2022-11-15T08:18:12.817Z,93.60
2022-11-15T08:21:56.705Z,93.50
2022-11-15T08:25:38.603Z,93.60
2022-11-15T08:29:20.401Z,93.50
2022-11-15T08:33:02.103Z,93.50
2022-11-15T08:36:46.158Z,93.50
2022-11-15T08:40:28.034Z,93.50
2022-11-15T08:44:09.982Z,93.40
2022-11-15T08:47:54.438Z,93.40
2022-11-15T08:51:36.645Z,93.40
2022-11-15T08:55:18.330Z,93.50
2022-11-15T08:59:00.010Z,93.40
2022-11-15T09:02:41.890Z,93.50
2022-11-15T09:06:23.878Z,93.30
2022-11-15T09:10:05.882Z,93.30
2022-11-15T09:13:48.705Z,93.20
2022-11-15T09:17:31.542Z,93.50
2022-11-15T09:21:14.787Z,93.10
2022-11-15T09:24:56.474Z,93.10
2022-11-15T09:28:39.198Z,93.10
2022-11-15T09:32:21.069Z,93.20
2022-11-15T09:36:04.605Z,93.20
2022-11-15T09:39:46.278Z,93.10
2022-11-15T09:43:49.929Z,93.00
2022-11-15T09:47:49.585Z,93.00
2022-11-15T09:51:47.803Z,93.00
2022-11-15T09:55:48.962Z,92.40
2022-11-15T10:00:23.763Z,91.50
2022-11-15T10:04:06.610Z,90.50
2022-11-15T10:08:21.369Z,90.20
2022-11-15T10:12:03.340Z,90.20
2022-11-15T10:15:46.505Z,90.70
2022-11-15T10:19:37.365Z,90.70
2022-11-15T10:23:21.088Z,90.60
2022-11-15T10:27:02.753Z,90.70
2022-11-15T10:30:48.196Z,91.30
2022-11-15T10:34:36.612Z,90.60
2022-11-15T10:38:18.280Z,90.70
2022-11-15T10:42:17.890Z,90.70
2022-11-15T10:46:05.836Z,90.30
2022-11-15T10:50:00.532Z,90.50
2022-11-15T10:53:45.185Z,91.00
2022-11-15T10:57:33.058Z,90.70
2022-11-15T11:01:23.254Z,90.50
2022-11-15T11:05:25.694Z,90.40
2022-11-15T11:09:10.541Z,90.50
2022-11-15T11:12:52.473Z,90.30
2022-11-15T11:16:39.224Z,91.00
2022-11-15T11:20:39.843Z,90.10
2022-11-15T11:25:01.768Z,90.30
2022-11-15T11:29:09.422Z,90.20
2022-11-15T11:32:57.110Z,89.20
2022-11-15T11:36:50.280Z,89.40
2022-11-15T11:40:36.320Z,88.70
2022-11-15T11:44:43.225Z,88.50
2022-11-15T11:48:46.694Z,87.70
2022-11-15T11:52:37.061Z,86.40
2022-11-15T11:56:29.954Z,86.20
2022-11-15T12:00:15.956Z,86.40
2022-11-15T12:04:02.626Z,87.30
2022-11-15T12:07:44.316Z,86.40
2022-11-15T12:12:02.010Z,86.60
2022-11-15T12:15:54.550Z,86.50
2022-11-15T12:19:36.334Z,86.10
2022-11-15T12:23:24.341Z,85.30
2022-11-15T12:27:38.636Z,85.20
2022-11-15T12:31:22.450Z,85.80
2022-11-15T12:35:06.396Z,87.70
2022-11-15T12:39:10.172Z,86.90
2022-11-15T12:43:38.222Z,84.40
2022-11-15T12:47:24.536Z,85.90
2022-11-15T12:51:07.501Z,86.40
2022-11-15T12:54:56.994Z,87.40
2022-11-15T12:58:55.695Z,87.20
2022-11-15T13:02:40.732Z,86.10
2022-11-15T13:06:52.477Z,87.10
2022-11-15T13:10:34.560Z,86.70
2022-11-15T13:14:38.455Z,87.70
2022-11-15T13:18:40.829Z,87.60
2022-11-15T13:22:41.222Z,88.10
2022-11-15T13:26:23.011Z,88.10
2022-11-15T13:30:05.473Z,88.10
2022-11-15T13:33:47.381Z,87.10
2022-11-15T13:37:30.820Z,87.60
2022-11-15T13:41:24.465Z,87.40
2022-11-15T13:45:06.510Z,86.90
2022-11-15T13:49:09.016Z,87.30
2022-11-15T13:52:50.926Z,88.30
2022-11-15T13:56:32.595Z,87.80
2022-11-15T14:00:35.408Z,87.20
2022-11-15T14:04:23.553Z,85.80
2022-11-15T14:08:23.881Z,85.40
2022-11-15T14:12:33.250Z,85.00
2022-11-15T14:16:22.099Z,85.30
2022-11-15T14:20:19.791Z,85.50
2022-11-15T14:24:18.020Z,84.50
2022-11-15T14:28:23.784Z,84.10
2022-11-15T14:32:22.825Z,84.60
2022-11-15T14:36:22.900Z,84.20
2022-11-15T14:40:05.854Z,84.20
2022-11-15T14:43:47.863Z,84.90
2022-11-15T14:47:29.523Z,84.90
2022-11-15T14:51:15.679Z,85.00
2022-11-15T14:54:58.908Z,85.50
2022-11-15T14:58:40.730Z,85.50
2022-11-15T15:02:24.270Z,85.40
2022-11-15T15:06:06.205Z,85.20
2022-11-15T15:09:47.978Z,85.10
2022-11-15T15:13:31.351Z,84.50
2022-11-15T15:17:13.128Z,84.90
2022-11-15T15:21:04.211Z,85.20
2022-11-15T15:24:46.324Z,85.40
2022-11-15T15:28:34.042Z,86.40
2022-11-15T15:32:16.364Z,86.50
2022-11-15T15:35:58.085Z,86.60
2022-11-15T15:39:39.761Z,86.60
2022-11-15T15:43:21.475Z,86.50
2022-11-15T15:47:03.170Z,86.00
2022-11-15T15:50:45.010Z,86.40
2022-11-15T15:54:26.861Z,86.50
2022-11-15T15:58:09.206Z,85.80
2022-11-15T16:01:51.121Z,86.30
2022-11-15T16:05:32.781Z,86.50
2022-11-15T16:09:18.778Z,86.40
2022-11-15T16:13:01.293Z,86.20
2022-11-15T16:16:43.013Z,86.30
2022-11-15T16:20:34.567Z,85.90
2022-11-15T16:24:16.340Z,86.40
2022-11-15T16:27:58.025Z,86.50
2022-11-15T16:31:39.982Z,86.50
2022-11-15T16:35:21.708Z,86.40
2022-11-15T16:39:06.461Z,86.20
2022-11-15T16:42:48.432Z,85.90
2022-11-15T16:46:30.180Z,86.00
2022-11-15T16:50:24.174Z,86.40
2022-11-15T16:54:06.104Z,86.30
2022-11-15T16:57:48.205Z,86.40
2022-11-15T17:01:32.951Z,86.40
2022-11-15T17:05:19.877Z,86.50
2022-11-15T17:09:01.989Z,86.50
2022-11-15T17:12:43.697Z,86.70
2022-11-15T17:16:25.591Z,86.60
2022-11-15T17:20:10.095Z,86.00
2022-11-15T17:23:51.958Z,86.30
2022-11-15T17:27:33.632Z,86.80
2022-11-15T17:31:15.489Z,86.60
2022-11-15T17:34:57.163Z,86.90
2022-11-15T17:38:41.086Z,86.90
2022-11-15T17:42:23.019Z,86.90
2022-11-15T17:46:06.162Z,86.90
2022-11-15T17:49:47.933Z,86.60
2022-11-15T17:53:37.400Z,86.70
2022-11-15T17:57:19.069Z,86.50
2022-11-15T18:01:08.218Z,86.90
2022-11-15T18:04:49.983Z,86.90
2022-11-15T18:08:32.038Z,87.00
2022-11-15T18:12:14.104Z,87.00
2022-11-15T18:16:02.469Z,86.90
2022-11-15T18:19:44.213Z,86.80
2022-11-15T18:23:26.242Z,87.10
2022-11-15T18:27:07.989Z,87.60
2022-11-15T18:30:49.684Z,87.70
2022-11-15T18:34:34.544Z,87.30
2022-11-15T18:38:16.232Z,87.10
2022-11-15T18:41:58.037Z,86.90
2022-11-15T18:45:39.708Z,86.90
2022-11-15T18:49:21.501Z,86.90
2022-11-15T18:53:03.444Z,86.80
2022-11-15T18:56:45.858Z,86.50
2022-11-15T19:00:27.555Z,86.40
2022-11-15T19:04:14.336Z,86.40
2022-11-15T19:07:56.012Z,86.50
2022-11-15T19:11:40.133Z,87.10
2022-11-15T19:15:21.837Z,86.40
2022-11-15T19:19:05.332Z,86.70
2022-11-15T19:22:47.335Z,86.80
2022-11-15T19:26:29.286Z,87.00
2022-11-15T19:30:13.137Z,87.60
2022-11-15T19:33:54.963Z,87.40
2022-11-15T19:37:36.708Z,87.60
2022-11-15T19:41:19.773Z,87.60
2022-11-15T19:45:01.498Z,87.80
2022-11-15T19:48:43.332Z,88.10
2022-11-15T19:52:26.352Z,88.20
2022-11-15T19:56:11.784Z,88.40
2022-11-15T19:59:53.470Z,88.40
2022-11-15T20:03:36.713Z,88.10
2022-11-15T20:07:18.638Z,88.00
2022-11-15T20:11:02.346Z,87.80
2022-11-15T20:14:45.940Z,88.10
2022-11-15T20:18:28.288Z,87.70
2022-11-15T20:22:11.326Z,87.40
2022-11-15T20:25:53.185Z,87.80
2022-11-15T20:29:34.859Z,88.00
2022-11-15T20:33:17.200Z,87.60
2022-11-15T20:36:58.966Z,87.90
2022-11-15T20:40:40.745Z,87.90
2022-11-15T20:44:22.588Z,87.70
2022-11-15T20:48:04.571Z,87.70
2022-11-15T20:51:46.515Z,87.90
2022-11-15T20:55:28.219Z,87.60
2022-11-15T20:59:09.940Z,87.40
2022-11-15T21:02:52.022Z,87.70
2022-11-15T21:06:33.893Z,87.40
2022-11-15T21:10:34.113Z,87.20
2022-11-15T21:14:17.369Z,88.00
2022-11-15T21:17:59.046Z,87.90
2022-11-15T21:21:41.925Z,87.90
2022-11-15T21:25:23.626Z,86.90
2022-11-15T21:29:05.464Z,87.50
2022-11-15T21:32:47.301Z,87.20
2022-11-15T21:36:29.169Z,87.00
2022-11-15T21:40:11.356Z,87.40
2022-11-15T21:43:57.016Z,87.60
2022-11-15T21:47:42.040Z,87.70
2022-11-15T21:51:27.691Z,87.40
2022-11-15T21:55:09.625Z,87.00
2022-11-15T21:58:52.069Z,87.40
2022-11-15T22:02:34.016Z,88.20
2022-11-15T22:06:18.107Z,87.20
2022-11-15T22:10:00.255Z,86.70
2022-11-15T22:13:42.524Z,87.00
2022-11-15T22:17:44.234Z,87.60
2022-11-15T22:21:26.072Z,88.10
2022-11-15T22:25:07.967Z,88.10
2022-11-15T22:28:49.671Z,88.20
2022-11-15T22:32:31.469Z,88.00
2022-11-15T22:36:13.355Z,88.70
2022-11-15T22:39:55.032Z,87.80
2022-11-15T22:43:36.910Z,88.40
2022-11-15T22:47:19.129Z,88.00
2022-11-15T22:51:01.293Z,87.70
2022-11-15T22:54:43.003Z,87.70
2022-11-15T22:58:25.486Z,87.80
2022-11-15T23:02:07.461Z,87.70
2022-11-15T23:05:49.627Z,87.60
2022-11-15T23:09:31.359Z,87.60
2022-11-15T23:13:16.286Z,87.70
2022-11-15T23:17:00.620Z,87.80
2022-11-15T23:20:43.731Z,87.60
2022-11-15T23:24:26.247Z,87.80
2022-11-15T23:28:07.964Z,87.70
2022-11-15T23:32:10.149Z,87.40
2022-11-15T23:35:55.254Z,87.70
2022-11-15T23:39:37.139Z,87.30
2022-11-15T23:43:20.410Z,87.70
2022-11-15T23:47:02.100Z,87.60
2022-11-15T23:50:46.147Z,87.70
2022-11-15T23:54:28.066Z,87.80
2022-11-15T23:58:10.022Z,88.00
